sensor_id;sensor_type;location;lat;lon;timestamp;P1;durP1;ratioP1;P2;durP2;ratioP2
4529;SDS011;2277;51.626;7.516;2022-12-10T00:01:05;22.37;;;16.60;;
4529;SDS011;2277;51.626;7.516;2022-12-10T00:03:32;22.40;;;20.00;;
4529;SDS011;2277;51.626;7.516;2022-12-10T00:06:02;27.57;;;22.43;;
4529;SDS011;2277;51.626;7.516;2022-12-10T00:08:28;31.40;;;19.00;;
4529;SDS011;2277;51.626;7.516;2022-12-10T00:10:54;21.17;;;17.03;;
4529;SDS011;2277;51.626;7.516;2022-12-10T00:13:20;18.30;;;13.87;;
4529;SDS011;2277;51.626;7.516;2022-12-10T00:15:45;24.87;;;19.47;;
4529;SDS011;2277;51.626;7.516;2022-12-10T00:18:11;18.20;;;16.33;;
4529;SDS011;2277;51.626;7.516;2022-12-10T00:20:37;17.53;;;13.87;;
4529;SDS011;2277;51.626;7.516;2022-12-10T00:23:02;25.30;;;17.03;;
4529;SDS011;2277;51.626;7.516;2022-12-10T00:25:28;23.80;;;17.20;;
4529;SDS011;2277;51.626;7.516;2022-12-10T00:27:54;23.27;;;19.17;;
4529;SDS011;2277;51.626;7.516;2022-12-10T00:30:19;25.53;;;17.00;;
4529;SDS011;2277;51.626;7.516;2022-12-10T00:32:45;23.27;;;20.87;;
4529;SDS011;2277;51.626;7.516;2022-12-10T00:35:10;25.03;;;19.80;;
4529;SDS011;2277;51.626;7.516;2022-12-10T00:37:36;17.73;;;14.50;;
4529;SDS011;2277;51.626;7.516;2022-12-10T00:40:02;17.97;;;15.00;;
4529;SDS011;2277;51.626;7.516;2022-12-10T00:42:28;15.83;;;12.77;;
4529;SDS011;2277;51.626;7.516;2022-12-10T00:44:54;16.47;;;13.33;;
4529;SDS011;2277;51.626;7.516;2022-12-10T00:47:19;18.87;;;15.87;;
4529;SDS011;2277;51.626;7.516;2022-12-10T00:49:45;22.30;;;16.83;;
4529;SDS011;2277;51.626;7.516;2022-12-10T00:52:10;22.70;;;13.77;;
4529;SDS011;2277;51.626;7.516;2022-12-10T00:54:36;21.00;;;12.40;;
4529;SDS011;2277;51.626;7.516;2022-12-10T00:57:02;17.63;;;15.87;;
4529;SDS011;2277;51.626;7.516;2022-12-10T00:59:27;19.77;;;13.53;;
4529;SDS011;2277;51.626;7.516;2022-12-10T01:01:53;22.60;;;16.00;;
4529;SDS011;2277;51.626;7.516;2022-12-10T01:04:18;31.60;;;18.10;;
4529;SDS011;2277;51.626;7.516;2022-12-10T01:06:45;15.87;;;14.10;;
4529;SDS011;2277;51.626;7.516;2022-12-10T01:09:17;17.37;;;14.33;;
4529;SDS011;2277;51.626;7.516;2022-12-10T01:11:45;19.13;;;15.87;;
4529;SDS011;2277;51.626;7.516;2022-12-10T01:14:14;17.10;;;13.77;;
4529;SDS011;2277;51.626;7.516;2022-12-10T01:16:42;20.10;;;12.40;;
4529;SDS011;2277;51.626;7.516;2022-12-10T01:19:08;20.60;;;12.90;;
4529;SDS011;2277;51.626;7.516;2022-12-10T01:21:35;20.23;;;17.17;;
4529;SDS011;2277;51.626;7.516;2022-12-10T01:24:01;18.87;;;15.43;;
4529;SDS011;2277;51.626;7.516;2022-12-10T01:26:29;23.20;;;13.93;;
4529;SDS011;2277;51.626;7.516;2022-12-10T01:28:57;16.87;;;15.17;;
4529;SDS011;2277;51.626;7.516;2022-12-10T01:31:24;16.20;;;14.50;;
4529;SDS011;2277;51.626;7.516;2022-12-10T01:33:55;20.03;;;11.70;;
4529;SDS011;2277;51.626;7.516;2022-12-10T01:36:24;18.13;;;15.93;;
4529;SDS011;2277;51.626;7.516;2022-12-10T01:38:51;19.47;;;15.37;;
4529;SDS011;2277;51.626;7.516;2022-12-10T01:41:18;17.90;;;16.37;;
4529;SDS011;2277;51.626;7.516;2022-12-10T01:46:14;16.97;;;15.10;;
4529;SDS011;2277;51.626;7.516;2022-12-10T01:48:40;20.53;;;18.40;;
4529;SDS011;2277;51.626;7.516;2022-12-10T01:51:06;21.33;;;15.23;;
4529;SDS011;2277;51.626;7.516;2022-12-10T01:53:31;17.77;;;15.37;;
4529;SDS011;2277;51.626;7.516;2022-12-10T01:55:58;16.17;;;11.70;;
4529;SDS011;2277;51.626;7.516;2022-12-10T01:58:23;20.07;;;15.27;;
4529;SDS011;2277;51.626;7.516;2022-12-10T02:00:53;20.30;;;17.17;;
4529;SDS011;2277;51.626;7.516;2022-12-10T02:03:27;16.33;;;14.77;;
4529;SDS011;2277;51.626;7.516;2022-12-10T02:06:09;15.23;;;13.63;;
4529;SDS011;2277;51.626;7.516;2022-12-10T02:14:47;17.87;;;13.73;;
4529;SDS011;2277;51.626;7.516;2022-12-10T02:17:13;20.13;;;17.27;;
4529;SDS011;2277;51.626;7.516;2022-12-10T02:22:17;26.93;;;17.30;;
4529;SDS011;2277;51.626;7.516;2022-12-10T02:24:46;14.43;;;13.13;;
4529;SDS011;2277;51.626;7.516;2022-12-10T02:28:01;20.13;;;16.77;;
4529;SDS011;2277;51.626;7.516;2022-12-10T02:30:05;16.23;;;13.13;;
4529;SDS011;2277;51.626;7.516;2022-12-10T02:32:38;19.87;;;16.33;;
4529;SDS011;2277;51.626;7.516;2022-12-10T02:35:09;21.00;;;13.70;;
4529;SDS011;2277;51.626;7.516;2022-12-10T02:37:50;19.43;;;16.80;;
4529;SDS011;2277;51.626;7.516;2022-12-10T02:40:22;24.37;;;15.67;;
4529;SDS011;2277;51.626;7.516;2022-12-10T02:42:51;18.50;;;15.60;;
4529;SDS011;2277;51.626;7.516;2022-12-10T02:45:18;19.67;;;15.27;;
4529;SDS011;2277;51.626;7.516;2022-12-10T02:47:47;20.90;;;17.70;;
4529;SDS011;2277;51.626;7.516;2022-12-10T02:50:13;19.20;;;17.17;;
4529;SDS011;2277;51.626;7.516;2022-12-10T02:52:43;12.50;;;11.13;;
4529;SDS011;2277;51.626;7.516;2022-12-10T02:55:12;22.60;;;12.43;;
4529;SDS011;2277;51.626;7.516;2022-12-10T03:00:16;18.67;;;13.93;;
4529;SDS011;2277;51.626;7.516;2022-12-10T03:03:28;18.70;;;15.37;;
4529;SDS011;2277;51.626;7.516;2022-12-10T03:09:01;14.10;;;12.90;;
4529;SDS011;2277;51.626;7.516;2022-12-10T03:11:30;15.63;;;12.73;;
4529;SDS011;2277;51.626;7.516;2022-12-10T03:16:22;15.90;;;12.20;;
4529;SDS011;2277;51.626;7.516;2022-12-10T03:18:51;21.03;;;14.80;;
4529;SDS011;2277;51.626;7.516;2022-12-10T03:21:21;15.90;;;14.10;;
4529;SDS011;2277;51.626;7.516;2022-12-10T03:23:49;15.00;;;10.97;;
4529;SDS011;2277;51.626;7.516;2022-12-10T03:26:15;16.80;;;12.90;;
4529;SDS011;2277;51.626;7.516;2022-12-10T03:28:47;15.10;;;10.90;;
4529;SDS011;2277;51.626;7.516;2022-12-10T03:31:17;17.70;;;10.23;;
4529;SDS011;2277;51.626;7.516;2022-12-10T03:33:44;16.10;;;12.70;;
4529;SDS011;2277;51.626;7.516;2022-12-10T03:36:12;18.63;;;12.70;;
4529;SDS011;2277;51.626;7.516;2022-12-10T03:38:38;14.30;;;12.83;;
4529;SDS011;2277;51.626;7.516;2022-12-10T03:41:05;16.47;;;14.47;;
4529;SDS011;2277;51.626;7.516;2022-12-10T03:43:30;20.30;;;14.27;;
4529;SDS011;2277;51.626;7.516;2022-12-10T03:45:56;19.60;;;13.63;;
4529;SDS011;2277;51.626;7.516;2022-12-10T03:48:22;17.50;;;15.13;;
4529;SDS011;2277;51.626;7.516;2022-12-10T03:50:47;20.07;;;12.30;;
4529;SDS011;2277;51.626;7.516;2022-12-10T03:53:13;16.33;;;14.60;;
4529;SDS011;2277;51.626;7.516;2022-12-10T03:55:38;20.10;;;13.00;;
4529;SDS011;2277;51.626;7.516;2022-12-10T03:58:04;20.43;;;13.80;;
4529;SDS011;2277;51.626;7.516;2022-12-10T04:00:30;16.67;;;12.23;;
4529;SDS011;2277;51.626;7.516;2022-12-10T04:02:56;17.27;;;12.40;;
4529;SDS011;2277;51.626;7.516;2022-12-10T04:05:21;14.53;;;11.70;;
4529;SDS011;2277;51.626;7.516;2022-12-10T04:07:47;15.40;;;12.90;;
4529;SDS011;2277;51.626;7.516;2022-12-10T04:10:12;14.47;;;11.43;;
4529;SDS011;2277;51.626;7.516;2022-12-10T04:12:38;21.87;;;13.73;;
4529;SDS011;2277;51.626;7.516;2022-12-10T04:15:04;23.87;;;16.57;;
4529;SDS011;2277;51.626;7.516;2022-12-10T04:17:48;18.17;;;14.73;;
4529;SDS011;2277;51.626;7.516;2022-12-10T04:20:14;17.90;;;13.50;;
4529;SDS011;2277;51.626;7.516;2022-12-10T04:22:58;17.70;;;11.87;;
4529;SDS011;2277;51.626;7.516;2022-12-10T04:25:42;22.80;;;15.57;;
4529;SDS011;2277;51.626;7.516;2022-12-10T04:28:26;19.00;;;15.10;;
4529;SDS011;2277;51.626;7.516;2022-12-10T04:30:52;20.47;;;13.63;;
4529;SDS011;2277;51.626;7.516;2022-12-10T04:33:18;20.50;;;12.80;;
4529;SDS011;2277;51.626;7.516;2022-12-10T04:35:43;12.60;;;11.13;;
4529;SDS011;2277;51.626;7.516;2022-12-10T04:38:09;13.57;;;10.57;;
4529;SDS011;2277;51.626;7.516;2022-12-10T04:40:34;15.80;;;13.70;;
4529;SDS011;2277;51.626;7.516;2022-12-10T04:43:00;28.83;;;13.77;;
4529;SDS011;2277;51.626;7.516;2022-12-10T04:45:25;22.57;;;12.90;;
4529;SDS011;2277;51.626;7.516;2022-12-10T04:47:51;16.80;;;13.50;;
4529;SDS011;2277;51.626;7.516;2022-12-10T04:50:16;18.10;;;12.17;;
4529;SDS011;2277;51.626;7.516;2022-12-10T04:52:42;21.50;;;11.93;;
4529;SDS011;2277;51.626;7.516;2022-12-10T04:55:08;17.23;;;15.50;;
4529;SDS011;2277;51.626;7.516;2022-12-10T04:57:33;16.63;;;11.70;;
4529;SDS011;2277;51.626;7.516;2022-12-10T04:59:59;12.87;;;11.57;;
4529;SDS011;2277;51.626;7.516;2022-12-10T05:02:24;20.33;;;12.90;;
4529;SDS011;2277;51.626;7.516;2022-12-10T05:04:50;21.57;;;14.17;;
4529;SDS011;2277;51.626;7.516;2022-12-10T05:07:15;18.37;;;10.50;;
4529;SDS011;2277;51.626;7.516;2022-12-10T05:09:41;20.80;;;12.57;;
4529;SDS011;2277;51.626;7.516;2022-12-10T05:12:07;13.57;;;12.03;;
4529;SDS011;2277;51.626;7.516;2022-12-10T05:14:32;16.53;;;12.43;;
4529;SDS011;2277;51.626;7.516;2022-12-10T05:16:58;24.43;;;12.73;;
4529;SDS011;2277;51.626;7.516;2022-12-10T05:19:23;21.17;;;11.60;;
4529;SDS011;2277;51.626;7.516;2022-12-10T05:21:52;19.30;;;11.03;;
4529;SDS011;2277;51.626;7.516;2022-12-10T05:24:36;17.00;;;11.03;;
4529;SDS011;2277;51.626;7.516;2022-12-10T05:27:02;17.70;;;9.83;;
4529;SDS011;2277;51.626;7.516;2022-12-10T05:29:29;12.53;;;9.73;;
4529;SDS011;2277;51.626;7.516;2022-12-10T05:31:56;14.43;;;12.83;;
4529;SDS011;2277;51.626;7.516;2022-12-10T05:34:22;11.80;;;10.40;;
4529;SDS011;2277;51.626;7.516;2022-12-10T05:36:48;16.13;;;11.63;;
4529;SDS011;2277;51.626;7.516;2022-12-10T05:39:13;13.07;;;11.10;;
4529;SDS011;2277;51.626;7.516;2022-12-10T05:41:39;13.17;;;8.73;;
4529;SDS011;2277;51.626;7.516;2022-12-10T05:44:05;9.73;;;8.93;;
4529;SDS011;2277;51.626;7.516;2022-12-10T05:46:33;15.87;;;13.30;;
4529;SDS011;2277;51.626;7.516;2022-12-10T05:49:00;17.30;;;13.53;;
4529;SDS011;2277;51.626;7.516;2022-12-10T05:51:28;11.10;;;10.00;;
4529;SDS011;2277;51.626;7.516;2022-12-10T05:53:56;12.67;;;11.47;;
4529;SDS011;2277;51.626;7.516;2022-12-10T05:56:23;13.23;;;10.40;;
4529;SDS011;2277;51.626;7.516;2022-12-10T05:58:50;16.17;;;9.73;;
4529;SDS011;2277;51.626;7.516;2022-12-10T06:01:22;14.47;;;9.60;;
4529;SDS011;2277;51.626;7.516;2022-12-10T06:03:49;17.00;;;10.50;;
4529;SDS011;2277;51.626;7.516;2022-12-10T06:06:20;17.63;;;12.07;;
4529;SDS011;2277;51.626;7.516;2022-12-10T06:08:51;18.10;;;11.63;;
4529;SDS011;2277;51.626;7.516;2022-12-10T06:11:17;13.30;;;9.73;;
4529;SDS011;2277;51.626;7.516;2022-12-10T06:13:43;12.90;;;10.77;;
4529;SDS011;2277;51.626;7.516;2022-12-10T06:16:10;14.00;;;12.60;;
4529;SDS011;2277;51.626;7.516;2022-12-10T06:18:37;13.40;;;9.43;;
4529;SDS011;2277;51.626;7.516;2022-12-10T06:21:07;14.13;;;10.53;;
4529;SDS011;2277;51.626;7.516;2022-12-10T06:23:35;15.77;;;8.97;;
4529;SDS011;2277;51.626;7.516;2022-12-10T06:26:08;20.10;;;9.23;;
4529;SDS011;2277;51.626;7.516;2022-12-10T06:28:36;13.87;;;11.07;;
4529;SDS011;2277;51.626;7.516;2022-12-10T06:31:02;18.83;;;12.97;;
4529;SDS011;2277;51.626;7.516;2022-12-10T06:33:28;19.10;;;13.03;;
4529;SDS011;2277;51.626;7.516;2022-12-10T06:35:54;13.00;;;9.90;;
4529;SDS011;2277;51.626;7.516;2022-12-10T06:38:19;15.90;;;14.40;;
4529;SDS011;2277;51.626;7.516;2022-12-10T06:40:45;13.10;;;11.33;;
4529;SDS011;2277;51.626;7.516;2022-12-10T06:43:11;14.17;;;11.90;;
4529;SDS011;2277;51.626;7.516;2022-12-10T06:45:40;17.67;;;14.70;;
4529;SDS011;2277;51.626;7.516;2022-12-10T06:48:06;18.90;;;10.73;;
4529;SDS011;2277;51.626;7.516;2022-12-10T06:50:32;12.50;;;10.50;;
4529;SDS011;2277;51.626;7.516;2022-12-10T06:52:57;13.83;;;12.17;;
4529;SDS011;2277;51.626;7.516;2022-12-10T06:55:23;12.23;;;10.43;;
4529;SDS011;2277;51.626;7.516;2022-12-10T06:57:52;16.33;;;14.60;;
4529;SDS011;2277;51.626;7.516;2022-12-10T07:00:18;14.50;;;9.57;;
4529;SDS011;2277;51.626;7.516;2022-12-10T07:02:45;17.40;;;8.27;;
4529;SDS011;2277;51.626;7.516;2022-12-10T07:05:10;18.33;;;12.87;;
4529;SDS011;2277;51.626;7.516;2022-12-10T07:07:36;38.90;;;13.03;;
4529;SDS011;2277;51.626;7.516;2022-12-10T07:10:02;9.20;;;8.30;;
4529;SDS011;2277;51.626;7.516;2022-12-10T07:12:28;15.60;;;9.90;;
4529;SDS011;2277;51.626;7.516;2022-12-10T07:14:54;15.83;;;12.00;;
4529;SDS011;2277;51.626;7.516;2022-12-10T07:17:20;14.50;;;11.13;;
4529;SDS011;2277;51.626;7.516;2022-12-10T07:19:45;13.03;;;10.83;;
4529;SDS011;2277;51.626;7.516;2022-12-10T07:22:11;19.60;;;14.37;;
4529;SDS011;2277;51.626;7.516;2022-12-10T07:24:36;12.37;;;10.80;;
4529;SDS011;2277;51.626;7.516;2022-12-10T07:27:04;13.40;;;11.47;;
4529;SDS011;2277;51.626;7.516;2022-12-10T07:29:31;11.93;;;10.93;;
4529;SDS011;2277;51.626;7.516;2022-12-10T07:31:56;16.37;;;10.10;;
4529;SDS011;2277;51.626;7.516;2022-12-10T07:34:22;14.63;;;9.30;;
4529;SDS011;2277;51.626;7.516;2022-12-10T07:36:47;11.33;;;9.93;;
4529;SDS011;2277;51.626;7.516;2022-12-10T07:39:13;12.83;;;8.13;;
4529;SDS011;2277;51.626;7.516;2022-12-10T07:41:42;23.60;;;12.63;;
4529;SDS011;2277;51.626;7.516;2022-12-10T07:44:10;13.70;;;11.50;;
4529;SDS011;2277;51.626;7.516;2022-12-10T07:46:37;11.27;;;9.57;;
4529;SDS011;2277;51.626;7.516;2022-12-10T07:49:03;15.00;;;10.70;;
4529;SDS011;2277;51.626;7.516;2022-12-10T07:51:29;14.00;;;9.03;;
4529;SDS011;2277;51.626;7.516;2022-12-10T07:53:55;15.70;;;12.67;;
4529;SDS011;2277;51.626;7.516;2022-12-10T07:56:21;24.60;;;13.60;;
4529;SDS011;2277;51.626;7.516;2022-12-10T07:58:49;17.37;;;10.63;;
4529;SDS011;2277;51.626;7.516;2022-12-10T08:01:17;21.03;;;10.13;;
4529;SDS011;2277;51.626;7.516;2022-12-10T08:03:47;11.53;;;10.07;;
4529;SDS011;2277;51.626;7.516;2022-12-10T08:06:14;16.73;;;12.10;;
4529;SDS011;2277;51.626;7.516;2022-12-10T08:08:42;14.37;;;12.93;;
4529;SDS011;2277;51.626;7.516;2022-12-10T08:11:08;12.93;;;9.87;;
4529;SDS011;2277;51.626;7.516;2022-12-10T08:13:34;15.27;;;12.90;;
4529;SDS011;2277;51.626;7.516;2022-12-10T08:16:04;12.10;;;10.87;;
4529;SDS011;2277;51.626;7.516;2022-12-10T08:18:32;24.27;;;10.83;;
4529;SDS011;2277;51.626;7.516;2022-12-10T08:20:58;15.90;;;13.70;;
4529;SDS011;2277;51.626;7.516;2022-12-10T08:23:27;16.07;;;13.30;;
4529;SDS011;2277;51.626;7.516;2022-12-10T08:25:53;16.30;;;10.07;;
4529;SDS011;2277;51.626;7.516;2022-12-10T08:28:18;12.27;;;11.17;;
4529;SDS011;2277;51.626;7.516;2022-12-10T08:30:48;13.10;;;10.90;;
4529;SDS011;2277;51.626;7.516;2022-12-10T08:33:14;16.03;;;10.40;;
4529;SDS011;2277;51.626;7.516;2022-12-10T08:35:40;20.07;;;12.53;;
4529;SDS011;2277;51.626;7.516;2022-12-10T08:38:06;15.87;;;11.53;;
4529;SDS011;2277;51.626;7.516;2022-12-10T08:40:31;24.63;;;13.87;;
4529;SDS011;2277;51.626;7.516;2022-12-10T08:42:57;16.37;;;14.73;;
4529;SDS011;2277;51.626;7.516;2022-12-10T08:45:23;12.77;;;10.40;;
4529;SDS011;2277;51.626;7.516;2022-12-10T08:47:48;18.30;;;12.13;;
4529;SDS011;2277;51.626;7.516;2022-12-10T08:50:14;16.33;;;9.77;;
4529;SDS011;2277;51.626;7.516;2022-12-10T08:52:39;18.33;;;9.77;;
4529;SDS011;2277;51.626;7.516;2022-12-10T08:55:05;16.80;;;10.20;;
4529;SDS011;2277;51.626;7.516;2022-12-10T08:57:31;15.60;;;13.93;;
4529;SDS011;2277;51.626;7.516;2022-12-10T08:59:56;17.70;;;10.03;;
4529;SDS011;2277;51.626;7.516;2022-12-10T09:02:22;14.00;;;10.60;;
4529;SDS011;2277;51.626;7.516;2022-12-10T09:04:49;11.33;;;8.43;;
4529;SDS011;2277;51.626;7.516;2022-12-10T09:07:15;15.93;;;11.37;;
4529;SDS011;2277;51.626;7.516;2022-12-10T09:09:41;14.33;;;11.33;;
4529;SDS011;2277;51.626;7.516;2022-12-10T09:12:06;15.40;;;12.17;;
4529;SDS011;2277;51.626;7.516;2022-12-10T09:14:32;10.63;;;9.10;;
4529;SDS011;2277;51.626;7.516;2022-12-10T09:16:57;9.93;;;7.97;;
4529;SDS011;2277;51.626;7.516;2022-12-10T09:19:23;11.97;;;10.70;;
4529;SDS011;2277;51.626;7.516;2022-12-10T09:21:48;17.47;;;10.70;;
4529;SDS011;2277;51.626;7.516;2022-12-10T09:24:14;18.73;;;12.30;;
4529;SDS011;2277;51.626;7.516;2022-12-10T09:26:40;10.33;;;9.37;;
4529;SDS011;2277;51.626;7.516;2022-12-10T09:29:05;13.97;;;10.43;;
4529;SDS011;2277;51.626;7.516;2022-12-10T09:31:31;11.37;;;8.83;;
4529;SDS011;2277;51.626;7.516;2022-12-10T09:33:56;14.57;;;13.03;;
4529;SDS011;2277;51.626;7.516;2022-12-10T09:36:22;11.57;;;8.90;;
4529;SDS011;2277;51.626;7.516;2022-12-10T09:38:48;13.07;;;9.10;;
4529;SDS011;2277;51.626;7.516;2022-12-10T09:44:03;15.60;;;9.13;;
4529;SDS011;2277;51.626;7.516;2022-12-10T09:52:10;13.07;;;9.67;;
4529;SDS011;2277;51.626;7.516;2022-12-10T09:54:54;13.00;;;9.27;;
4529;SDS011;2277;51.626;7.516;2022-12-10T09:57:41;19.43;;;9.50;;
4529;SDS011;2277;51.626;7.516;2022-12-10T10:00:19;9.57;;;7.90;;
4529;SDS011;2277;51.626;7.516;2022-12-10T10:02:52;14.90;;;8.77;;
4529;SDS011;2277;51.626;7.516;2022-12-10T10:05:23;11.90;;;8.67;;
4529;SDS011;2277;51.626;7.516;2022-12-10T10:07:55;8.47;;;7.57;;
4529;SDS011;2277;51.626;7.516;2022-12-10T10:10:33;14.37;;;9.13;;
4529;SDS011;2277;51.626;7.516;2022-12-10T10:15:33;16.37;;;11.90;;
4529;SDS011;2277;51.626;7.516;2022-12-10T10:20:57;15.80;;;12.60;;
4529;SDS011;2277;51.626;7.516;2022-12-10T10:23:23;15.83;;;10.47;;
4529;SDS011;2277;51.626;7.516;2022-12-10T10:25:49;16.17;;;11.27;;
4529;SDS011;2277;51.626;7.516;2022-12-10T10:28:18;13.63;;;10.67;;
4529;SDS011;2277;51.626;7.516;2022-12-10T10:30:45;13.23;;;10.33;;
4529;SDS011;2277;51.626;7.516;2022-12-10T10:33:12;16.37;;;11.10;;
4529;SDS011;2277;51.626;7.516;2022-12-10T10:38:21;14.10;;;9.63;;
4529;SDS011;2277;51.626;7.516;2022-12-10T10:40:50;12.27;;;8.30;;
4529;SDS011;2277;51.626;7.516;2022-12-10T10:43:28;8.70;;;7.83;;
4529;SDS011;2277;51.626;7.516;2022-12-10T10:45:58;10.03;;;8.40;;
4529;SDS011;2277;51.626;7.516;2022-12-10T10:48:27;17.70;;;11.90;;
4529;SDS011;2277;51.626;7.516;2022-12-10T10:56:10;21.23;;;14.53;;
4529;SDS011;2277;51.626;7.516;2022-12-10T10:59:01;28.47;;;20.77;;
4529;SDS011;2277;51.626;7.516;2022-12-10T11:01:48;31.23;;;19.70;;
4529;SDS011;2277;51.626;7.516;2022-12-10T11:04:16;22.77;;;20.40;;
4529;SDS011;2277;51.626;7.516;2022-12-10T11:07:03;21.23;;;17.53;;
4529;SDS011;2277;51.626;7.516;2022-12-10T11:09:36;26.90;;;20.53;;
4529;SDS011;2277;51.626;7.516;2022-12-10T11:12:05;24.83;;;18.87;;
4529;SDS011;2277;51.626;7.516;2022-12-10T11:14:45;26.37;;;20.07;;
4529;SDS011;2277;51.626;7.516;2022-12-10T11:24:58;29.87;;;19.97;;
4529;SDS011;2277;51.626;7.516;2022-12-10T11:27:29;25.57;;;19.67;;
4529;SDS011;2277;51.626;7.516;2022-12-10T11:30:12;19.63;;;16.83;;
4529;SDS011;2277;51.626;7.516;2022-12-10T11:44:00;20.17;;;16.10;;
4529;SDS011;2277;51.626;7.516;2022-12-10T11:59:51;23.80;;;16.77;;
4529;SDS011;2277;51.626;7.516;2022-12-10T12:03:28;17.70;;;13.70;;
4529;SDS011;2277;51.626;7.516;2022-12-10T12:13:36;16.90;;;14.63;;
4529;SDS011;2277;51.626;7.516;2022-12-10T12:16:44;19.73;;;13.07;;
4529;SDS011;2277;51.626;7.516;2022-12-10T12:19:38;19.40;;;15.37;;
4529;SDS011;2277;51.626;7.516;2022-12-10T12:22:43;13.83;;;11.50;;
4529;SDS011;2277;51.626;7.516;2022-12-10T12:25:23;17.73;;;15.57;;
4529;SDS011;2277;51.626;7.516;2022-12-10T12:28:15;18.20;;;15.70;;
4529;SDS011;2277;51.626;7.516;2022-12-10T12:30:48;23.53;;;16.57;;
4529;SDS011;2277;51.626;7.516;2022-12-10T12:33:30;26.67;;;14.20;;
4529;SDS011;2277;51.626;7.516;2022-12-10T12:36:47;31.13;;;14.73;;
4529;SDS011;2277;51.626;7.516;2022-12-10T12:46:57;14.73;;;12.13;;
4529;SDS011;2277;51.626;7.516;2022-12-10T12:55:00;20.60;;;13.20;;
4529;SDS011;2277;51.626;7.516;2022-12-10T12:57:45;24.73;;;14.53;;
4529;SDS011;2277;51.626;7.516;2022-12-10T13:00:17;25.93;;;16.37;;
4529;SDS011;2277;51.626;7.516;2022-12-10T13:05:44;23.10;;;12.60;;
4529;SDS011;2277;51.626;7.516;2022-12-10T13:10:43;15.83;;;14.37;;
4529;SDS011;2277;51.626;7.516;2022-12-10T13:13:22;18.50;;;16.50;;
4529;SDS011;2277;51.626;7.516;2022-12-10T13:15:49;21.30;;;14.20;;
4529;SDS011;2277;51.626;7.516;2022-12-10T13:20:50;33.90;;;15.83;;
4529;SDS011;2277;51.626;7.516;2022-12-10T13:23:50;23.83;;;16.07;;
4529;SDS011;2277;51.626;7.516;2022-12-10T13:26:27;23.10;;;14.23;;
4529;SDS011;2277;51.626;7.516;2022-12-10T13:28:55;25.43;;;14.23;;
4529;SDS011;2277;51.626;7.516;2022-12-10T13:31:36;23.97;;;17.17;;
4529;SDS011;2277;51.626;7.516;2022-12-10T13:34:05;31.33;;;20.73;;
4529;SDS011;2277;51.626;7.516;2022-12-10T13:39:11;18.10;;;12.30;;
4529;SDS011;2277;51.626;7.516;2022-12-10T13:44:56;21.60;;;13.97;;
4529;SDS011;2277;51.626;7.516;2022-12-10T13:50:20;28.40;;;18.10;;
4529;SDS011;2277;51.626;7.516;2022-12-10T13:53:10;18.33;;;12.93;;
4529;SDS011;2277;51.626;7.516;2022-12-10T13:55:59;21.00;;;13.50;;
4529;SDS011;2277;51.626;7.516;2022-12-10T14:06:50;20.83;;;15.70;;
4529;SDS011;2277;51.626;7.516;2022-12-10T14:11:53;18.00;;;14.63;;
4529;SDS011;2277;51.626;7.516;2022-12-10T14:14:35;23.43;;;15.80;;
4529;SDS011;2277;51.626;7.516;2022-12-10T14:17:06;18.60;;;16.43;;
4529;SDS011;2277;51.626;7.516;2022-12-10T14:19:41;18.90;;;12.40;;
4529;SDS011;2277;51.626;7.516;2022-12-10T14:22:16;20.77;;;15.50;;
4529;SDS011;2277;51.626;7.516;2022-12-10T14:24:55;25.47;;;16.47;;
4529;SDS011;2277;51.626;7.516;2022-12-10T14:27:26;28.37;;;15.50;;
4529;SDS011;2277;51.626;7.516;2022-12-10T14:29:57;27.37;;;19.27;;
4529;SDS011;2277;51.626;7.516;2022-12-10T14:32:35;17.70;;;14.17;;
4529;SDS011;2277;51.626;7.516;2022-12-10T14:35:13;29.93;;;17.60;;
4529;SDS011;2277;51.626;7.516;2022-12-10T14:37:42;22.03;;;16.10;;
4529;SDS011;2277;51.626;7.516;2022-12-10T14:40:17;17.80;;;13.53;;
4529;SDS011;2277;51.626;7.516;2022-12-10T14:42:44;24.37;;;14.57;;
4529;SDS011;2277;51.626;7.516;2022-12-10T14:45:13;26.43;;;15.70;;
4529;SDS011;2277;51.626;7.516;2022-12-10T14:47:40;23.13;;;17.03;;
4529;SDS011;2277;51.626;7.516;2022-12-10T14:50:09;20.80;;;16.33;;
4529;SDS011;2277;51.626;7.516;2022-12-10T14:52:41;32.10;;;22.43;;
4529;SDS011;2277;51.626;7.516;2022-12-10T14:55:15;31.23;;;20.23;;
4529;SDS011;2277;51.626;7.516;2022-12-10T14:57:45;21.60;;;16.33;;
4529;SDS011;2277;51.626;7.516;2022-12-10T15:00:24;24.50;;;16.97;;
4529;SDS011;2277;51.626;7.516;2022-12-10T15:02:53;20.63;;;15.50;;
4529;SDS011;2277;51.626;7.516;2022-12-10T15:05:26;20.40;;;17.87;;
4529;SDS011;2277;51.626;7.516;2022-12-10T15:07:55;19.20;;;14.83;;
4529;SDS011;2277;51.626;7.516;2022-12-10T15:10:26;23.53;;;17.77;;
4529;SDS011;2277;51.626;7.516;2022-12-10T15:12:54;21.13;;;16.00;;
4529;SDS011;2277;51.626;7.516;2022-12-10T15:17:59;20.80;;;15.17;;
4529;SDS011;2277;51.626;7.516;2022-12-10T15:20:53;24.17;;;18.17;;
4529;SDS011;2277;51.626;7.516;2022-12-10T15:30:49;23.00;;;18.13;;
4529;SDS011;2277;51.626;7.516;2022-12-10T15:33:29;23.53;;;16.30;;
4529;SDS011;2277;51.626;7.516;2022-12-10T15:35:58;31.53;;;21.40;;
4529;SDS011;2277;51.626;7.516;2022-12-10T15:38:25;33.17;;;21.87;;
4529;SDS011;2277;51.626;7.516;2022-12-10T15:40:51;23.63;;;17.40;;
4529;SDS011;2277;51.626;7.516;2022-12-10T15:45:54;27.70;;;18.97;;
4529;SDS011;2277;51.626;7.516;2022-12-10T15:48:20;24.47;;;16.50;;
4529;SDS011;2277;51.626;7.516;2022-12-10T15:50:46;27.23;;;19.70;;
4529;SDS011;2277;51.626;7.516;2022-12-10T15:53:14;21.43;;;18.30;;
4529;SDS011;2277;51.626;7.516;2022-12-10T15:55:46;21.77;;;14.57;;
4529;SDS011;2277;51.626;7.516;2022-12-10T15:58:12;26.43;;;20.00;;
4529;SDS011;2277;51.626;7.516;2022-12-10T16:00:39;21.93;;;18.80;;
4529;SDS011;2277;51.626;7.516;2022-12-10T16:03:09;38.27;;;18.97;;
4529;SDS011;2277;51.626;7.516;2022-12-10T16:05:37;27.47;;;19.37;;
4529;SDS011;2277;51.626;7.516;2022-12-10T16:10:38;26.77;;;15.70;;
4529;SDS011;2277;51.626;7.516;2022-12-10T16:13:05;24.27;;;15.53;;
4529;SDS011;2277;51.626;7.516;2022-12-10T16:15:39;23.10;;;17.80;;
4529;SDS011;2277;51.626;7.516;2022-12-10T16:18:09;22.17;;;16.83;;
4529;SDS011;2277;51.626;7.516;2022-12-10T16:20:36;19.63;;;14.70;;
4529;SDS011;2277;51.626;7.516;2022-12-10T16:23:02;21.00;;;17.00;;
4529;SDS011;2277;51.626;7.516;2022-12-10T16:25:29;18.63;;;16.77;;
4529;SDS011;2277;51.626;7.516;2022-12-10T16:27:57;19.97;;;15.97;;
4529;SDS011;2277;51.626;7.516;2022-12-10T16:30:24;27.57;;;20.13;;
4529;SDS011;2277;51.626;7.516;2022-12-10T16:32:56;21.37;;;14.93;;
4529;SDS011;2277;51.626;7.516;2022-12-10T16:35:22;24.63;;;17.27;;
4529;SDS011;2277;51.626;7.516;2022-12-10T16:37:48;22.60;;;17.07;;
4529;SDS011;2277;51.626;7.516;2022-12-10T16:40:16;40.43;;;16.43;;
4529;SDS011;2277;51.626;7.516;2022-12-10T16:42:42;17.50;;;15.10;;
4529;SDS011;2277;51.626;7.516;2022-12-10T16:45:11;28.57;;;19.97;;
4529;SDS011;2277;51.626;7.516;2022-12-10T16:47:38;21.20;;;16.20;;
4529;SDS011;2277;51.626;7.516;2022-12-10T16:50:04;26.73;;;20.13;;
4529;SDS011;2277;51.626;7.516;2022-12-10T16:52:30;22.17;;;15.73;;
4529;SDS011;2277;51.626;7.516;2022-12-10T16:54:55;20.63;;;15.03;;
4529;SDS011;2277;51.626;7.516;2022-12-10T16:57:21;19.17;;;16.13;;
4529;SDS011;2277;51.626;7.516;2022-12-10T16:59:46;22.00;;;13.57;;
4529;SDS011;2277;51.626;7.516;2022-12-10T17:02:13;25.63;;;18.37;;
4529;SDS011;2277;51.626;7.516;2022-12-10T17:04:40;32.10;;;13.80;;
4529;SDS011;2277;51.626;7.516;2022-12-10T17:07:07;26.53;;;17.33;;
4529;SDS011;2277;51.626;7.516;2022-12-10T17:09:34;20.87;;;18.07;;
4529;SDS011;2277;51.626;7.516;2022-12-10T17:12:00;27.87;;;18.20;;
4529;SDS011;2277;51.626;7.516;2022-12-10T17:14:27;36.20;;;19.63;;
4529;SDS011;2277;51.626;7.516;2022-12-10T17:17:02;21.57;;;16.67;;
4529;SDS011;2277;51.626;7.516;2022-12-10T17:19:29;32.27;;;18.43;;
4529;SDS011;2277;51.626;7.516;2022-12-10T17:21:56;24.10;;;16.93;;